Time;durP1;ratioP1;P1;durP2;ratioP2;P2;SDS_P1;SDS_P2;PMS_P1;PMS_P2;Temp;Humidity;BMP_temperature;BMP_pressure;BME280_temperature;BME280_humidity;BME280_pressure;Samples;Min_cycle;Max_cycle;Signal;HPM_P1;HPM_P2
2022/06/18 00:00:56;;;;;;;11.07;4.15;;;;;;;;;;4959191;29;20162;-72
2022/06/18 00:03:23;;;;;;;19.35;5.05;;;;;;;;;;4958903;29;20105;-72
2022/06/18 00:05:50;;;;;;;12.98;4.28;;;;;;;;;;4958228;29;20460;-72
2022/06/18 00:08:18;;;;;;;12.77;3.90;;;;;;;;;;4958360;29;20051;-72
2022/06/18 00:10:45;;;;;;;18.15;5.25;;;;;;;;;;4958807;29;20047;-72
2022/06/18 00:15:59;;;;;;;21.92;4.22;;;;;;;;;;4957885;29;20043;-72
2022/06/18 00:18:26;;;;;;;15.32;4.55;;;;;;;;;;4958337;29;20565;-72
2022/06/18 00:20:52;;;;;;;19.23;4.40;;;;;;;;;;4958685;29;20093;-72
2022/06/18 00:23:18;;;;;;;22.85;4.53;;;;;;;;;;4957881;29;20113;-72
2022/06/18 00:25:49;;;;;;;15.15;4.60;;;;;;;;;;4957914;29;20047;-72
2022/06/18 00:28:19;;;;;;;11.63;4.32;;;;;;;;;;4958269;29;20058;-72
2022/06/18 00:30:45;;;;;;;13.45;3.88;;;;;;;;;;4958957;29;20046;-72
2022/06/18 00:33:11;;;;;;;13.93;4.30;;;;;;;;;;4957832;29;20121;-72
2022/06/18 00:35:38;;;;;;;18.45;4.60;;;;;;;;;;4958031;29;20094;-72
2022/06/18 00:38:05;;;;;;;12.80;4.40;;;;;;;;;;4958395;29;20490;-72
2022/06/18 00:40:34;;;;;;;12.30;4.60;;;;;;;;;;4957976;28;20047;-72
2022/06/18 00:43:04;;;;;;;12.05;4.10;;;;;;;;;;4957508;29;20070;-72
2022/06/18 00:45:30;;;;;;;14.60;4.53;;;;;;;;;;4957528;29;20176;-72
2022/06/18 00:48:01;;;;;;;15.25;4.93;;;;;;;;;;4957825;29;20129;-72
2022/06/18 00:50:34;;;;;;;11.45;3.65;;;;;;;;;;4957526;29;20039;-72
2022/06/18 00:53:07;;;;;;;14.15;4.85;;;;;;;;;;4957767;29;20069;-72
2022/06/18 00:55:52;;;;;;;15.73;4.80;;;;;;;;;;4957707;29;20422;-72
2022/06/18 00:58:21;;;;;;;13.25;4.18;;;;;;;;;;4957889;29;20049;-72
2022/06/18 01:00:48;;;;;;;14.70;4.50;;;;;;;;;;4957921;29;20047;-72
2022/06/18 01:03:31;;;;;;;13.70;4.88;;;;;;;;;;4957819;29;20522;-72
2022/06/18 01:05:58;;;;;;;17.70;5.38;;;;;;;;;;4957952;29;20043;-72
2022/06/18 01:08:26;;;;;;;14.40;4.95;;;;;;;;;;4957715;29;20097;-72
2022/06/18 01:10:54;;;;;;;15.70;4.65;;;;;;;;;;4957732;29;20043;-72
2022/06/18 01:13:22;;;;;;;14.20;4.32;;;;;;;;;;4957333;29;20047;-72
2022/06/18 01:15:48;;;;;;;11.95;4.22;;;;;;;;;;4957323;29;20098;-72
2022/06/18 01:18:15;;;;;;;14.95;4.70;;;;;;;;;;4957376;29;20098;-72
2022/06/18 01:20:47;;;;;;;13.13;4.68;;;;;;;;;;4957838;29;20043;-72
2022/06/18 01:23:23;;;;;;;10.23;4.03;;;;;;;;;;4957191;29;20047;-72
2022/06/18 01:25:49;;;;;;;15.32;4.47;;;;;;;;;;4957349;29;20043;-72
2022/06/18 01:28:17;;;;;;;15.07;4.80;;;;;;;;;;4957376;29;20047;-72
2022/06/18 01:30:44;;;;;;;11.82;4.45;;;;;;;;;;4957435;29;20047;-72
2022/06/18 01:33:11;;;;;;;15.38;4.80;;;;;;;;;;4957337;29;20070;-72
2022/06/18 01:35:38;;;;;;;16.15;4.60;;;;;;;;;;4956967;29;20043;-72
2022/06/18 01:38:05;;;;;;;15.13;4.60;;;;;;;;;;4957069;29;20043;-72
2022/06/18 01:40:37;;;;;;;16.60;4.93;;;;;;;;;;4957244;29;20048;-72
2022/06/18 01:43:04;;;;;;;15.85;4.70;;;;;;;;;;4956893;29;20047;-72
2022/06/18 01:45:32;;;;;;;9.07;4.38;;;;;;;;;;4957039;29;20031;-72
2022/06/18 01:48:05;;;;;;;15.50;5.68;;;;;;;;;;4957087;29;20055;-72
2022/06/18 01:50:43;;;;;;;13.38;4.72;;;;;;;;;;4957129;29;20061;-72
2022/06/18 01:53:11;;;;;;;12.05;4.32;;;;;;;;;;4955884;28;20126;-72
2022/06/18 01:55:41;;;;;;;15.60;5.03;;;;;;;;;;4956784;29;20088;-72
2022/06/18 01:58:11;;;;;;;14.52;4.80;;;;;;;;;;4956901;29;20035;-72
2022/06/18 02:00:37;;;;;;;11.10;4.82;;;;;;;;;;4956391;29;20068;-72
2022/06/18 02:03:04;;;;;;;13.07;4.57;;;;;;;;;;4956566;29;20035;-72
2022/06/18 02:05:30;;;;;;;11.43;4.32;;;;;;;;;;4956230;29;20047;-72
2022/06/18 02:07:57;;;;;;;14.07;5.22;;;;;;;;;;4957060;29;20055;-72
2022/06/18 02:10:25;;;;;;;13.45;4.55;;;;;;;;;;4956408;29;20050;-72
2022/06/18 02:12:52;;;;;;;14.98;5.18;;;;;;;;;;4956730;29;20043;-72
2022/06/18 02:15:22;;;;;;;10.63;4.63;;;;;;;;;;4956477;29;20046;-72
2022/06/18 02:17:49;;;;;;;11.40;4.70;;;;;;;;;;4956631;29;20098;-72
2022/06/18 02:20:18;;;;;;;11.45;5.15;;;;;;;;;;4956524;29;20122;-72
2022/06/18 02:22:46;;;;;;;13.20;4.43;;;;;;;;;;4956386;29;20039;-72
2022/06/18 02:25:13;;;;;;;10.52;4.22;;;;;;;;;;4955856;29;20126;-72
2022/06/18 02:27:40;;;;;;;13.70;4.75;;;;;;;;;;4956380;29;20502;-72
2022/06/18 02:30:14;;;;;;;13.18;4.97;;;;;;;;;;4956502;29;20079;-72
2022/06/18 02:32:46;;;;;;;14.35;5.60;;;;;;;;;;4956456;29;20051;-72
2022/06/18 02:35:12;;;;;;;13.00;5.20;;;;;;;;;;4956158;29;20047;-72
2022/06/18 02:37:38;;;;;;;13.25;5.10;;;;;;;;;;4956267;29;20053;-72
2022/06/18 02:40:15;;;;;;;11.55;5.07;;;;;;;;;;4956156;29;20122;-72
2022/06/18 02:42:41;;;;;;;10.55;4.60;;;;;;;;;;4956265;29;20478;-72
2022/06/18 02:45:08;;;;;;;11.88;5.28;;;;;;;;;;4956270;29;20139;-72
2022/06/18 02:47:35;;;;;;;15.93;4.80;;;;;;;;;;4955806;29;20051;-72
2022/06/18 02:50:04;;;;;;;16.25;4.95;;;;;;;;;;4956071;29;20043;-72
2022/06/18 02:52:33;;;;;;;11.93;5.32;;;;;;;;;;4956115;29;20054;-72
2022/06/18 02:55:08;;;;;;;11.05;4.78;;;;;;;;;;4956275;29;20186;-72
2022/06/18 02:57:34;;;;;;;13.75;4.80;;;;;;;;;;4956103;29;20043;-72
2022/06/18 03:00:00;;;;;;;8.18;4.25;;;;;;;;;;4955805;29;20431;-72
2022/06/18 03:02:26;;;;;;;11.18;4.97;;;;;;;;;;4956295;29;20035;-72
2022/06/18 03:04:53;;;;;;;9.50;4.97;;;;;;;;;;4957805;28;20047;-72
2022/06/18 03:07:19;;;;;;;9.90;4.57;;;;;;;;;;4959890;29;20086;-72
2022/06/18 03:12:29;;;;;;;18.35;5.32;;;;;;;;;;4959380;29;20570;-72
2022/06/18 03:14:56;;;;;;;14.40;5.63;;;;;;;;;;4959892;29;20039;-72
2022/06/18 03:17:22;;;;;;;11.20;4.85;;;;;;;;;;4959815;29;20047;-72
2022/06/18 03:19:54;;;;;;;10.85;5.18;;;;;;;;;;4959587;29;20039;-72
2022/06/18 03:22:21;;;;;;;10.30;4.90;;;;;;;;;;4959122;29;20047;-72
2022/06/18 03:24:47;;;;;;;13.82;5.30;;;;;;;;;;4958904;29;20070;-72
2022/06/18 03:27:14;;;;;;;8.88;4.70;;;;;;;;;;4959335;29;20054;-72
2022/06/18 03:29:41;;;;;;;10.52;5.22;;;;;;;;;;4959405;29;20047;-72
2022/06/18 03:32:07;;;;;;;11.15;5.47;;;;;;;;;;4958973;29;20047;-72
2022/06/18 03:34:33;;;;;;;12.30;5.40;;;;;;;;;;4958924;29;20043;-72
2022/06/18 03:37:00;;;;;;;9.45;4.97;;;;;;;;;;4959117;29;20053;-72
2022/06/18 03:39:26;;;;;;;13.50;5.53;;;;;;;;;;4958951;29;20043;-72
2022/06/18 03:41:53;;;;;;;13.73;6.03;;;;;;;;;;4959029;29;20043;-72
2022/06/18 03:44:19;;;;;;;12.98;5.07;;;;;;;;;;4958710;29;20043;-72
2022/06/18 03:46:45;;;;;;;12.02;5.03;;;;;;;;;;4958874;29;20134;-72
2022/06/18 03:49:38;;;;;;;10.38;4.55;;;;;;;;;;4958369;29;20039;-72
2022/06/18 03:52:06;;;;;;;9.98;5.55;;;;;;;;;;4955228;29;20088;-72
2022/06/18 03:54:32;;;;;;;16.00;5.00;;;;;;;;;;4958389;29;20058;-72
2022/06/18 03:56:58;;;;;;;14.48;5.18;;;;;;;;;;4958804;29;20051;-72
2022/06/18 03:59:24;;;;;;;18.13;5.70;;;;;;;;;;4958462;29;20093;-72
2022/06/18 04:01:51;;;;;;;13.18;5.22;;;;;;;;;;4959266;29;20478;-72
2022/06/18 04:04:17;;;;;;;10.93;5.05;;;;;;;;;;4958590;29;20043;-72
2022/06/18 04:06:43;;;;;;;16.67;5.65;;;;;;;;;;4958577;29;20050;-72
2022/06/18 04:09:10;;;;;;;13.27;5.05;;;;;;;;;;4958510;29;20528;-72
2022/06/18 04:11:36;;;;;;;9.32;5.22;;;;;;;;;;4958545;29;20039;-72
2022/06/18 04:14:03;;;;;;;13.80;5.88;;;;;;;;;;4958788;29;20043;-72
2022/06/18 04:16:29;;;;;;;12.90;5.10;;;;;;;;;;4958171;28;20114;-72
2022/06/18 04:18:55;;;;;;;11.15;5.10;;;;;;;;;;4958607;29;20557;-72
2022/06/18 04:21:21;;;;;;;9.93;4.80;;;;;;;;;;4958630;29;20486;-72
2022/06/18 04:23:48;;;;;;;11.90;4.72;;;;;;;;;;4958425;29;20098;-72
2022/06/18 04:26:14;;;;;;;11.18;6.13;;;;;;;;;;4958232;29;20561;-72
2022/06/18 04:28:40;;;;;;;16.10;5.45;;;;;;;;;;4958227;29;20079;-71
2022/06/18 04:31:07;;;;;;;12.48;5.18;;;;;;;;;;4958819;29;20043;-72
2022/06/18 04:33:33;;;;;;;14.45;5.25;;;;;;;;;;4958392;29;20042;-72
2022/06/18 04:36:00;;;;;;;12.75;5.05;;;;;;;;;;4958659;29;20501;-72
2022/06/18 04:38:26;;;;;;;9.50;5.07;;;;;;;;;;4958128;29;20131;-72
2022/06/18 04:40:52;;;;;;;14.45;5.25;;;;;;;;;;4958430;29;20046;-72
2022/06/18 04:43:19;;;;;;;11.38;6.00;;;;;;;;;;4958496;29;20043;-72
2022/06/18 04:45:45;;;;;;;10.05;5.22;;;;;;;;;;4957902;29;20097;-72
2022/06/18 04:48:13;;;;;;;13.98;4.72;;;;;;;;;;4958150;29;20513;-72
2022/06/18 04:50:40;;;;;;;13.40;5.65;;;;;;;;;;4958507;29;20043;-72
2022/06/18 04:53:06;;;;;;;7.70;4.88;;;;;;;;;;4957868;29;20050;-72
2022/06/18 04:55:33;;;;;;;10.70;5.10;;;;;;;;;;4957526;29;20051;-72
2022/06/18 04:57:59;;;;;;;12.25;5.30;;;;;;;;;;4957665;29;20047;-72
2022/06/18 05:00:26;;;;;;;10.82;5.22;;;;;;;;;;4957113;29;20047;-72
2022/06/18 05:02:52;;;;;;;9.32;5.05;;;;;;;;;;4957271;29;20079;-72
2022/06/18 05:05:20;;;;;;;13.77;5.30;;;;;;;;;;4957101;29;20031;-72
2022/06/18 05:07:46;;;;;;;9.38;4.78;;;;;;;;;;4957160;29;20078;-72
2022/06/18 05:10:15;;;;;;;10.02;5.22;;;;;;;;;;4956284;29;20118;-72
2022/06/18 05:12:41;;;;;;;11.43;4.80;;;;;;;;;;4956343;29;20066;-72
2022/06/18 05:15:08;;;;;;;10.15;5.55;;;;;;;;;;4957182;29;20094;-72
2022/06/18 05:17:38;;;;;;;12.85;5.63;;;;;;;;;;4956938;29;20126;-72
2022/06/18 05:20:05;;;;;;;7.55;4.65;;;;;;;;;;4957221;29;20039;-72
2022/06/18 05:22:31;;;;;;;10.38;5.28;;;;;;;;;;4956586;29;20118;-72
2022/06/18 05:24:58;;;;;;;9.73;4.60;;;;;;;;;;4956994;29;20043;-72
2022/06/18 05:27:42;;;;;;;8.10;4.32;;;;;;;;;;4956222;28;20094;-72
2022/06/18 05:30:10;;;;;;;8.20;4.45;;;;;;;;;;4956931;29;20117;-72
2022/06/18 05:32:37;;;;;;;15.27;5.57;;;;;;;;;;4957034;29;20046;-72
2022/06/18 05:35:03;;;;;;;7.65;4.88;;;;;;;;;;4956642;29;20031;-72
2022/06/18 05:37:30;;;;;;;8.45;4.75;;;;;;;;;;4956707;29;20047;-72
2022/06/18 05:39:56;;;;;;;8.23;3.92;;;;;;;;;;4955660;29;20394;-72
2022/06/18 05:42:22;;;;;;;10.65;4.88;;;;;;;;;;4956535;29;20094;-72
2022/06/18 05:44:49;;;;;;;10.40;4.75;;;;;;;;;;4956555;29;20043;-72
2022/06/18 05:47:26;;;;;;;14.40;4.35;;;;;;;;;;4956738;29;20142;-72
2022/06/18 05:49:56;;;;;;;10.85;4.40;;;;;;;;;;4956730;29;20078;-72
2022/06/18 05:52:22;;;;;;;9.25;4.53;;;;;;;;;;4957017;29;20047;-72
2022/06/18 05:54:51;;;;;;;7.65;4.93;;;;;;;;;;4956197;29;20518;-72
2022/06/18 05:57:18;;;;;;;13.23;5.20;;;;;;;;;;4956428;29;20051;-72
2022/06/18 05:59:44;;;;;;;6.65;4.70;;;;;;;;;;4956733;29;20043;-72
2022/06/18 06:02:11;;;;;;;10.63;4.95;;;;;;;;;;4956631;29;20106;-72
2022/06/18 06:04:39;;;;;;;11.25;4.45;;;;;;;;;;4956320;29;20122;-73
2022/06/18 06:07:06;;;;;;;6.35;4.00;;;;;;;;;;4956674;29;20105;-73
2022/06/18 06:12:17;;;;;;;11.13;5.03;;;;;;;;;;4956017;29;20046;-73
2022/06/18 06:14:43;;;;;;;8.82;4.40;;;;;;;;;;4956533;29;20051;-73
2022/06/18 06:17:14;;;;;;;8.43;4.55;;;;;;;;;;4956435;29;20139;-72
2022/06/18 06:19:41;;;;;;;11.13;5.10;;;;;;;;;;4956704;29;20051;-73
2022/06/18 06:22:07;;;;;;;13.55;4.78;;;;;;;;;;4956085;29;20039;-73
2022/06/18 06:24:33;;;;;;;8.70;4.60;;;;;;;;;;4956211;29;20494;-73
2022/06/18 06:26:59;;;;;;;7.88;4.13;;;;;;;;;;4955997;29;20106;-73
2022/06/18 06:29:25;;;;;;;9.50;4.70;;;;;;;;;;4956626;29;20077;-73
2022/06/18 06:31:51;;;;;;;14.02;5.05;;;;;;;;;;4956004;29;20464;-73
2022/06/18 06:34:17;;;;;;;8.10;3.88;;;;;;;;;;4956276;29;20043;-73
2022/06/18 06:36:43;;;;;;;11.70;4.40;;;;;;;;;;4956088;29;20494;-73
2022/06/18 06:39:10;;;;;;;7.25;4.28;;;;;;;;;;4956905;28;20046;-73
2022/06/18 06:41:36;;;;;;;10.02;4.40;;;;;;;;;;4959875;29;20035;-73
2022/06/18 06:44:02;;;;;;;9.32;4.22;;;;;;;;;;4960446;29;20086;-73
2022/06/18 06:46:28;;;;;;;11.75;4.72;;;;;;;;;;4959741;29;20520;-73
2022/06/18 06:48:54;;;;;;;8.35;4.10;;;;;;;;;;4960206;29;20538;-73
2022/06/18 06:51:22;;;;;;;8.18;4.72;;;;;;;;;;4959742;29;20043;-73
2022/06/18 06:53:48;;;;;;;9.25;4.63;;;;;;;;;;4959692;29;20047;-73
2022/06/18 06:59:00;;;;;;;7.35;4.30;;;;;;;;;;4959337;29;20090;-73
2022/06/18 07:01:27;;;;;;;11.13;4.80;;;;;;;;;;4959846;29;20043;-73
2022/06/18 07:03:53;;;;;;;7.95;4.18;;;;;;;;;;4959737;29;20042;-73
2022/06/18 07:06:19;;;;;;;6.55;4.30;;;;;;;;;;4959915;29;20053;-73
2022/06/18 07:08:45;;;;;;;10.00;4.68;;;;;;;;;;4959514;29;20121;-73
2022/06/18 07:11:12;;;;;;;9.15;4.30;;;;;;;;;;4959654;29;20553;-73
2022/06/18 07:13:39;;;;;;;9.88;4.20;;;;;;;;;;4959538;29;20043;-73
2022/06/18 07:16:05;;;;;;;9.77;3.90;;;;;;;;;;4959794;29;20051;-73
2022/06/18 07:18:32;;;;;;;7.25;4.45;;;;;;;;;;4959051;29;20076;-70
2022/06/18 07:21:02;;;;;;;9.27;4.35;;;;;;;;;;4953854;29;20043;-70
2022/06/18 07:23:28;;;;;;;8.65;4.05;;;;;;;;;;4958358;29;20481;-70
2022/06/18 07:25:55;;;;;;;5.25;4.20;;;;;;;;;;4955906;28;20050;-70
2022/06/18 07:28:21;;;;;;;13.95;5.00;;;;;;;;;;4978833;28;20074;-70
2022/06/18 07:30:47;;;;;;;7.78;4.70;;;;;;;;;;4957090;28;20467;-70
2022/06/18 07:33:14;;;;;;;8.98;4.32;;;;;;;;;;4939766;29;20526;-70
2022/06/18 07:35:41;;;;;;;8.15;4.13;;;;;;;;;;4946257;29;20075;-70
2022/06/18 07:38:07;;;;;;;6.05;4.07;;;;;;;;;;4959213;29;20126;-70
2022/06/18 07:40:35;;;;;;;10.60;4.05;;;;;;;;;;4954588;29;20054;-70
2022/06/18 07:43:02;;;;;;;9.98;3.78;;;;;;;;;;4958632;29;20114;-70
2022/06/18 07:45:28;;;;;;;11.85;4.18;;;;;;;;;;4958483;29;20050;-70
2022/06/18 07:47:54;;;;;;;6.45;3.88;;;;;;;;;;4944670;28;20070;-69
2022/06/18 07:50:22;;;;;;;7.18;4.10;;;;;;;;;;4939020;29;20410;-69
2022/06/18 07:52:48;;;;;;;7.63;3.90;;;;;;;;;;4940389;29;20043;-70
2022/06/18 07:55:16;;;;;;;8.23;4.00;;;;;;;;;;4949427;29;20043;-70
2022/06/18 07:57:43;;;;;;;7.32;3.88;;;;;;;;;;4947272;29;20635;-70
2022/06/18 08:00:10;;;;;;;8.65;3.90;;;;;;;;;;4939316;29;20035;-70
2022/06/18 08:02:37;;;;;;;6.65;3.80;;;;;;;;;;4948208;29;20077;-70
2022/06/18 08:05:03;;;;;;;7.50;3.50;;;;;;;;;;4955063;28;20031;-70
2022/06/18 08:07:29;;;;;;;4.75;2.70;;;;;;;;;;4957928;29;20043;-70
2022/06/18 08:09:55;;;;;;;5.65;2.78;;;;;;;;;;4952010;28;20099;-69
2022/06/18 08:12:22;;;;;;;5.90;3.00;;;;;;;;;;4953906;29;20047;-69
2022/06/18 08:14:48;;;;;;;10.48;2.70;;;;;;;;;;4954884;28;20037;-72
2022/06/18 08:17:16;;;;;;;3.78;2.53;;;;;;;;;;4949783;29;20051;-70
2022/06/18 08:19:42;;;;;;;7.32;2.80;;;;;;;;;;4955604;29;20036;-70
2022/06/18 08:22:08;;;;;;;4.65;2.92;;;;;;;;;;4957443;29;20050;-70
2022/06/18 08:24:34;;;;;;;6.43;3.28;;;;;;;;;;4958089;28;20089;-70
2022/06/18 08:27:01;;;;;;;3.72;2.85;;;;;;;;;;4955085;28;20054;-69
2022/06/18 08:29:27;;;;;;;9.32;3.55;;;;;;;;;;4952142;29;20043;-69
2022/06/18 08:31:54;;;;;;;6.28;3.78;;;;;;;;;;4954135;29;20502;-69
2022/06/18 08:34:20;;;;;;;5.28;3.03;;;;;;;;;;4940308;29;20043;-69
2022/06/18 08:36:46;;;;;;;5.47;3.05;;;;;;;;;;4952597;29;20509;-70
2022/06/18 08:39:12;;;;;;;14.27;3.10;;;;;;;;;;4952872;28;20039;-70
2022/06/18 08:41:56;;;;;;;4.82;3.38;;;;;;;;;;4946516;28;20039;-70
2022/06/18 08:44:22;;;;;;;3.15;2.85;;;;;;;;;;4940155;29;20502;-69
2022/06/18 08:47:00;;;;;;;4.93;3.13;;;;;;;;;;4938220;29;20126;-69
2022/06/18 08:49:38;;;;;;;5.38;3.88;;;;;;;;;;4937320;29;20134;-69
2022/06/18 08:52:04;;;;;;;5.13;3.63;;;;;;;;;;4953676;28;20418;-70
2022/06/18 08:54:30;;;;;;;4.38;3.30;;;;;;;;;;4957073;28;20502;-70
2022/06/18 08:57:02;;;;;;;5.82;3.92;;;;;;;;;;4965650;28;20051;-70
2022/06/18 08:59:54;;;;;;;7.47;3.60;;;;;;;;;;4950051;29;20126;-70
2022/06/18 09:02:20;;;;;;;6.90;4.05;;;;;;;;;;4939655;28;20549;-69
2022/06/18 09:05:08;;;;;;;5.13;3.33;;;;;;;;;;4950740;28;20179;-69
2022/06/18 09:07:53;;;;;;;7.63;3.25;;;;;;;;;;4956986;28;20088;-70
2022/06/18 09:10:21;;;;;;;4.75;3.40;;;;;;;;;;4955482;28;20059;-69
2022/06/18 09:12:54;;;;;;;5.10;3.33;;;;;;;;;;4953029;29;20118;-69
2022/06/18 09:15:42;;;;;;;3.67;3.33;;;;;;;;;;4952710;29;20175;-68
2022/06/18 09:18:15;;;;;;;4.75;2.88;;;;;;;;;;4954548;29;20071;-69
2022/06/18 09:20:48;;;;;;;9.07;3.30;;;;;;;;;;4952858;29;20047;-70
2022/06/18 09:23:23;;;;;;;5.07;3.33;;;;;;;;;;4953048;29;20071;-69
2022/06/18 09:25:51;;;;;;;7.20;3.40;;;;;;;;;;4951040;28;20055;-69
2022/06/18 09:28:23;;;;;;;4.25;2.88;;;;;;;;;;4953034;29;20113;-69
2022/06/18 09:30:53;;;;;;;4.88;3.08;;;;;;;;;;4954055;29;20043;-69
2022/06/18 09:33:31;;;;;;;3.50;3.10;;;;;;;;;;4952045;29;20451;-69
2022/06/18 09:36:11;;;;;;;7.13;3.28;;;;;;;;;;4955626;29;20050;-69
2022/06/18 09:38:40;;;;;;;7.43;3.50;;;;;;;;;;4952480;28;20114;-70
2022/06/18 09:41:27;;;;;;;8.00;3.35;;;;;;;;;;4957940;28;20139;-70
2022/06/18 09:43:58;;;;;;;4.32;3.05;;;;;;;;;;4959996;28;20078;-70
2022/06/18 09:46:29;;;;;;;4.05;3.25;;;;;;;;;;4956123;28;20137;-70
2022/06/18 09:48:55;;;;;;;7.75;3.47;;;;;;;;;;4960781;28;20055;-69
2022/06/18 09:51:27;;;;;;;5.45;3.20;;;;;;;;;;4975714;28;20043;-70
2022/06/18 09:53:54;;;;;;;5.93;3.20;;;;;;;;;;4940897;28;20055;-69
2022/06/18 09:56:28;;;;;;;6.70;3.15;;;;;;;;;;4942245;29;20050;-70
2022/06/18 09:59:14;;;;;;;5.68;3.10;;;;;;;;;;4951368;29;20043;-70
2022/06/18 10:01:46;;;;;;;5.03;3.20;;;;;;;;;;4949383;29;20039;-69
2022/06/18 10:07:00;;;;;;;5.05;3.17;;;;;;;;;;4960533;28;20556;-70
2022/06/18 10:09:26;;;;;;;3.63;3.33;;;;;;;;;;4938194;29;20059;-70
2022/06/18 10:11:52;;;;;;;9.02;3.45;;;;;;;;;;4948144;29;20563;-70
2022/06/18 10:14:22;;;;;;;5.05;3.33;;;;;;;;;;4955608;29;20050;-69
2022/06/18 10:16:51;;;;;;;7.78;3.67;;;;;;;;;;4955922;29;20078;-70
2022/06/18 10:19:23;;;;;;;5.22;3.38;;;;;;;;;;4959586;28;20058;-69
2022/06/18 10:21:59;;;;;;;8.18;3.42;;;;;;;;;;4958225;28;20511;-70
2022/06/18 10:24:31;;;;;;;6.10;3.30;;;;;;;;;;4943766;28;20089;-70
2022/06/18 10:27:04;;;;;;;6.00;3.42;;;;;;;;;;4961381;28;20054;-70
2022/06/18 10:29:36;;;;;;;5.70;3.70;;;;;;;;;;4957704;28;20042;-69
2022/06/18 10:32:08;;;;;;;6.40;3.28;;;;;;;;;;4952715;28;20569;-69
2022/06/18 10:34:53;;;;;;;7.03;3.45;;;;;;;;;;4955490;29;20051;-70
2022/06/18 10:37:22;;;;;;;4.28;3.10;;;;;;;;;;4956461;29;20063;-70
2022/06/18 10:39:48;;;;;;;3.95;2.88;;;;;;;;;;4955296;29;20047;-70
2022/06/18 10:42:14;;;;;;;7.68;2.72;;;;;;;;;;4956251;29;20553;-69
2022/06/18 10:44:59;;;;;;;3.75;2.92;;;;;;;;;;4960671;28;20074;-69
2022/06/18 10:47:31;;;;;;;2.58;2.38;;;;;;;;;;4961106;28;20050;-69
2022/06/18 10:50:01;;;;;;;5.68;2.80;;;;;;;;;;4954256;28;20099;-69
2022/06/18 10:52:27;;;;;;;11.63;2.80;;;;;;;;;;4953819;29;20050;-70
2022/06/18 10:55:13;;;;;;;4.50;2.70;;;;;;;;;;4953369;28;20073;-69
2022/06/18 10:57:39;;;;;;;6.63;2.88;;;;;;;;;;4947663;28;20068;-69
2022/06/18 11:00:25;;;;;;;4.85;2.88;;;;;;;;;;4958655;28;20051;-68
2022/06/18 11:02:55;;;;;;;7.18;2.85;;;;;;;;;;4954503;29;20109;-69
2022/06/18 11:05:24;;;;;;;6.78;2.60;;;;;;;;;;4936486;29;20123;-69
2022/06/18 11:07:52;;;;;;;3.78;2.40;;;;;;;;;;4936824;29;20043;-69
2022/06/18 11:10:24;;;;;;;6.68;2.90;;;;;;;;;;4946739;29;20042;-68
2022/06/18 11:12:55;;;;;;;3.38;2.53;;;;;;;;;;4955293;29;20042;-69
2022/06/18 11:15:26;;;;;;;5.72;2.78;;;;;;;;;;4942709;29;20044;-69
2022/06/18 11:17:53;;;;;;;7.28;3.13;;;;;;;;;;4945245;29;20074;-69
2022/06/18 11:20:23;;;;;;;5.47;3.00;;;;;;;;;;4950622;29;20054;-69
2022/06/18 11:22:53;;;;;;;4.75;2.90;;;;;;;;;;4955671;28;20494;-70
2022/06/18 11:25:26;;;;;;;4.53;2.90;;;;;;;;;;4946742;29;20519;-69
2022/06/18 11:27:53;;;;;;;4.63;2.67;;;;;;;;;;4956033;29;20047;-69
2022/06/18 11:30:23;;;;;;;5.45;2.75;;;;;;;;;;4939414;29;20058;-69
2022/06/18 11:32:50;;;;;;;7.18;3.17;;;;;;;;;;4946771;29;20710;-70
2022/06/18 11:35:16;;;;;;;8.82;3.00;;;;;;;;;;4946354;29;20045;-70
2022/06/18 11:37:42;;;;;;;8.35;2.55;;;;;;;;;;4955119;29;20041;-70
2022/06/18 11:40:09;;;;;;;8.25;3.15;;;;;;;;;;4960878;28;20477;-69
2022/06/18 11:42:50;;;;;;;8.63;3.00;;;;;;;;;;4957725;28;20042;-69
2022/06/18 11:45:17;;;;;;;;;;;;;;;;;;4956389;29;20079;-69
2022/06/18 11:47:55;;;;;;;12.55;2.97;;;;;;;;;;4955739;29;20001;-70
2022/06/18 11:50:25;;;;;;;7.18;2.80;;;;;;;;;;4952754;28;20078;-69
2022/06/18 11:52:55;;;;;;;10.77;3.75;;;;;;;;;;4956896;29;20035;-70
2022/06/18 11:55:26;;;;;;;7.80;4.00;;;;;;;;;;4955873;28;20070;-69
2022/06/18 11:58:02;;;;;;;7.57;3.13;;;;;;;;;;4960785;28;20073;-70
2022/06/18 12:00:41;;;;;;;4.07;2.58;;;;;;;;;;4947239;29;20560;-69
2022/06/18 12:03:27;;;;;;;6.97;2.53;;;;;;;;;;4958274;28;20101;-70
2022/06/18 12:05:53;;;;;;;5.85;2.92;;;;;;;;;;4951669;28;20043;-69
2022/06/18 12:08:21;;;;;;;5.72;2.67;;;;;;;;;;4953658;29;20043;-69
2022/06/18 12:11:04;;;;;;;5.03;2.88;;;;;;;;;;4954952;29;20130;-69
2022/06/18 12:13:35;;;;;;;5.07;2.60;;;;;;;;;;4957996;28;20121;-69
2022/06/18 12:16:13;;;;;;;6.25;2.75;;;;;;;;;;4959792;28;20043;-70
2022/06/18 12:18:50;;;;;;;8.32;3.47;;;;;;;;;;4954855;29;20510;-69
2022/06/18 12:21:24;;;;;;;6.68;2.55;;;;;;;;;;4959298;28;20051;-70
2022/06/18 12:24:02;;;;;;;8.85;2.63;;;;;;;;;;4956068;28;20125;-70
2022/06/18 12:26:35;;;;;;;6.60;3.30;;;;;;;;;;4954938;28;20497;-69
2022/06/18 12:29:30;;;;;;;5.43;2.70;;;;;;;;;;4955419;28;20066;-69
2022/06/18 12:32:19;;;;;;;8.63;2.95;;;;;;;;;;4938388;29;20405;-68
2022/06/18 12:34:45;;;;;;;10.25;2.75;;;;;;;;;;4948568;29;20403;-68
2022/06/18 12:37:11;;;;;;;5.43;2.80;;;;;;;;;;4952187;28;20058;-68
2022/06/18 12:39:45;;;;;;;6.13;2.72;;;;;;;;;;4947576;29;20036;-68
2022/06/18 12:42:12;;;;;;;6.15;2.42;;;;;;;;;;4949604;29;20122;-68
2022/06/18 12:44:44;;;;;;;9.45;2.85;;;;;;;;;;4942468;28;20047;-68
2022/06/18 12:47:29;;;;;;;5.90;2.47;;;;;;;;;;4953111;28;20051;-68
2022/06/18 12:50:05;;;;;;;6.28;2.95;;;;;;;;;;4943667;28;20054;-68
2022/06/18 12:52:31;;;;;;;5.32;2.65;;;;;;;;;;4956349;29;20082;-68
2022/06/18 12:55:03;;;;;;;4.38;2.28;;;;;;;;;;4957254;29;20066;-68
2022/06/18 12:57:35;;;;;;;10.15;2.90;;;;;;;;;;4949578;29;20494;-68
2022/06/18 13:00:10;;;;;;;6.22;2.42;;;;;;;;;;4957044;29;20054;-68
2022/06/18 13:02:39;;;;;;;7.53;2.75;;;;;;;;;;4955462;29;20062;-68
2022/06/18 13:05:24;;;;;;;3.90;2.30;;;;;;;;;;4956113;29;20047;-68
2022/06/18 13:07:50;;;;;;;4.38;2.42;;;;;;;;;;4951654;29;20092;-68
2022/06/18 13:10:16;;;;;;;8.73;2.40;;;;;;;;;;4961959;28;20054;-69
2022/06/18 13:12:55;;;;;;;3.83;2.30;;;;;;;;;;4957767;28;20054;-69
2022/06/18 13:15:27;;;;;;;6.50;2.25;;;;;;;;;;4956071;28;20051;-69
2022/06/18 13:17:57;;;;;;;4.85;2.20;;;;;;;;;;4968637;28;20054;-69
2022/06/18 13:20:26;;;;;;;6.70;2.63;;;;;;;;;;4944901;29;20118;-69
2022/06/18 13:22:53;;;;;;;4.82;2.10;;;;;;;;;;4955269;28;20186;-69
2022/06/18 13:28:16;;;;;;;6.13;1.90;;;;;;;;;;4953009;29;20158;-68
2022/06/18 13:30:48;;;;;;;7.25;2.15;;;;;;;;;;4948356;28;20481;-70
2022/06/18 13:33:20;;;;;;;4.80;2.00;;;;;;;;;;4945957;29;20069;-69
2022/06/18 13:35:46;;;;;;;4.68;1.92;;;;;;;;;;4954284;28;20046;-74
2022/06/18 13:38:23;;;;;;;5.03;2.30;;;;;;;;;;4950026;29;20556;-69
2022/06/18 13:41:04;;;;;;;6.53;1.75;;;;;;;;;;4956105;29;20193;-69
2022/06/18 13:43:37;;;;;;;2.92;1.80;;;;;;;;;;4955065;29;20126;-69
2022/06/18 13:46:09;;;;;;;11.15;2.95;;;;;;;;;;4956130;29;20055;-69
2022/06/18 13:48:35;;;;;;;6.35;2.40;;;;;;;;;;4956744;28;20051;-69
2022/06/18 13:51:01;;;;;;;5.55;2.17;;;;;;;;;;4956793;29;20479;-69
2022/06/18 13:53:37;;;;;;;8.80;2.30;;;;;;;;;;4956368;29;20066;-70
2022/06/18 13:56:22;;;;;;;5.18;1.80;;;;;;;;;;4956521;29;20462;-69
2022/06/18 13:58:49;;;;;;;4.68;1.92;;;;;;;;;;4956496;29;20042;-69
2022/06/18 14:01:17;;;;;;;6.72;1.90;;;;;;;;;;4956789;29;20070;-69
2022/06/18 14:03:45;;;;;;;3.97;1.75;;;;;;;;;;4956301;29;20171;-69
2022/06/18 14:06:12;;;;;;;7.57;2.00;;;;;;;;;;4956461;29;20043;-69
2022/06/18 14:08:41;;;;;;;5.00;1.73;;;;;;;;;;4955982;29;20546;-69
2022/06/18 14:11:09;;;;;;;6.90;1.92;;;;;;;;;;4956408;29;20087;-69
2022/06/18 14:13:49;;;;;;;7.97;2.22;;;;;;;;;;4956535;29;20043;-69
2022/06/18 14:16:26;;;;;;;10.38;2.22;;;;;;;;;;4956212;29;20089;-69
2022/06/18 14:18:52;;;;;;;3.42;2.08;;;;;;;;;;4956620;29;20051;-69
2022/06/18 14:21:25;;;;;;;4.72;1.98;;;;;;;;;;4956456;29;20075;-69
2022/06/18 14:23:56;;;;;;;5.57;2.17;;;;;;;;;;4956466;29;20051;-69
2022/06/18 14:26:22;;;;;;;9.18;2.33;;;;;;;;;;4956261;29;20070;-69
2022/06/18 14:28:51;;;;;;;9.60;2.42;;;;;;;;;;4956328;29;20054;-69
2022/06/18 14:31:29;;;;;;;6.22;2.20;;;;;;;;;;4956643;29;20098;-69
2022/06/18 14:34:09;;;;;;;9.80;2.85;;;;;;;;;;4955748;29;20098;-69
2022/06/18 14:36:37;;;;;;;5.00;2.33;;;;;;;;;;4956859;29;20047;-69
2022/06/18 14:39:05;;;;;;;6.50;2.72;;;;;;;;;;4956497;29;20058;-69
2022/06/18 14:41:35;;;;;;;6.97;2.42;;;;;;;;;;4956260;29;20520;-69
2022/06/18 14:44:20;;;;;;;10.87;2.70;;;;;;;;;;4955930;29;20039;-69
2022/06/18 14:47:04;;;;;;;6.00;1.92;;;;;;;;;;4956140;29;20047;-69
2022/06/18 14:49:33;;;;;;;7.13;2.53;;;;;;;;;;4956386;29;20102;-69
2022/06/18 14:51:59;;;;;;;5.57;1.98;;;;;;;;;;4956278;29;20031;-69
2022/06/18 14:54:33;;;;;;;4.70;2.00;;;;;;;;;;4956015;29;20059;-69
2022/06/18 14:57:15;;;;;;;5.35;1.90;;;;;;;;;;4956091;29;20122;-69
2022/06/18 14:59:41;;;;;;;4.55;2.03;;;;;;;;;;4956717;28;20039;-69
2022/06/18 15:02:16;;;;;;;5.00;1.88;;;;;;;;;;4959984;29;20127;-69
2022/06/18 15:04:45;;;;;;;9.60;2.53;;;;;;;;;;4959965;29;20058;-69
2022/06/18 15:07:11;;;;;;;6.78;1.80;;;;;;;;;;4959941;29;20054;-69
2022/06/18 15:09:38;;;;;;;5.53;1.80;;;;;;;;;;4960014;29;20125;-69